sensor_id;sensor_type;location;lat;lon;timestamp;P1;durP1;ratioP1;P2;durP2;ratioP2
50988;SDS011;37008;52.210;21.112;2023-05-07T00:01:00;8.68;;;5.32;;
50988;SDS011;37008;52.210;21.112;2023-05-07T00:03:27;7.18;;;5.38;;
50988;SDS011;37008;52.210;21.112;2023-05-07T00:05:52;11.38;;;6.38;;
50988;SDS011;37008;52.210;21.112;2023-05-07T00:08:18;9.93;;;6.07;;
50988;SDS011;37008;52.210;21.112;2023-05-07T00:10:44;7.85;;;5.05;;
50988;SDS011;37008;52.210;21.112;2023-05-07T00:13:10;7.90;;;5.30;;
50988;SDS011;37008;52.210;21.112;2023-05-07T00:15:35;14.50;;;5.32;;
50988;SDS011;37008;52.210;21.112;2023-05-07T00:18:01;10.43;;;5.40;;
50988;SDS011;37008;52.210;21.112;2023-05-07T00:20:26;7.43;;;5.18;;
50988;SDS011;37008;52.210;21.112;2023-05-07T00:22:52;10.43;;;5.25;;
50988;SDS011;37008;52.210;21.112;2023-05-07T00:25:18;8.32;;;5.75;;
50988;SDS011;37008;52.210;21.112;2023-05-07T00:27:44;9.25;;;5.20;;
50988;SDS011;37008;52.210;21.112;2023-05-07T00:30:10;8.77;;;5.15;;
50988;SDS011;37008;52.210;21.112;2023-05-07T00:32:36;10.88;;;5.40;;
50988;SDS011;37008;52.210;21.112;2023-05-07T00:35:02;8.55;;;4.70;;
50988;SDS011;37008;52.210;21.112;2023-05-07T00:37:29;6.07;;;5.28;;
50988;SDS011;37008;52.210;21.112;2023-05-07T00:39:55;7.43;;;5.00;;
50988;SDS011;37008;52.210;21.112;2023-05-07T00:42:20;8.85;;;5.80;;
50988;SDS011;37008;52.210;21.112;2023-05-07T00:44:46;9.82;;;5.32;;
50988;SDS011;37008;52.210;21.112;2023-05-07T00:47:12;8.60;;;5.63;;
50988;SDS011;37008;52.210;21.112;2023-05-07T00:49:39;7.85;;;5.40;;
50988;SDS011;37008;52.210;21.112;2023-05-07T00:52:07;11.93;;;5.97;;
50988;SDS011;37008;52.210;21.112;2023-05-07T00:54:38;8.73;;;5.65;;
50988;SDS011;37008;52.210;21.112;2023-05-07T00:57:05;7.75;;;5.53;;
50988;SDS011;37008;52.210;21.112;2023-05-07T00:59:31;7.70;;;5.00;;
50988;SDS011;37008;52.210;21.112;2023-05-07T01:01:58;11.30;;;4.85;;
50988;SDS011;37008;52.210;21.112;2023-05-07T01:04:24;9.95;;;5.90;;
50988;SDS011;37008;52.210;21.112;2023-05-07T01:06:50;8.27;;;4.97;;
50988;SDS011;37008;52.210;21.112;2023-05-07T01:09:18;10.75;;;5.90;;
50988;SDS011;37008;52.210;21.112;2023-05-07T01:11:45;7.13;;;4.07;;
50988;SDS011;37008;52.210;21.112;2023-05-07T01:14:12;8.13;;;5.25;;
50988;SDS011;37008;52.210;21.112;2023-05-07T01:16:38;8.55;;;4.53;;
50988;SDS011;37008;52.210;21.112;2023-05-07T01:19:06;6.22;;;5.03;;
50988;SDS011;37008;52.210;21.112;2023-05-07T01:21:33;7.68;;;5.10;;
50988;SDS011;37008;52.210;21.112;2023-05-07T01:24:00;12.23;;;6.43;;
50988;SDS011;37008;52.210;21.112;2023-05-07T01:26:26;9.00;;;5.63;;
50988;SDS011;37008;52.210;21.112;2023-05-07T01:28:51;8.38;;;5.40;;
50988;SDS011;37008;52.210;21.112;2023-05-07T01:31:17;8.55;;;5.35;;
50988;SDS011;37008;52.210;21.112;2023-05-07T01:33:43;7.78;;;5.10;;
50988;SDS011;37008;52.210;21.112;2023-05-07T01:36:10;7.07;;;5.00;;
50988;SDS011;37008;52.210;21.112;2023-05-07T01:38:38;8.93;;;5.03;;
50988;SDS011;37008;52.210;21.112;2023-05-07T01:41:05;8.23;;;5.07;;
50988;SDS011;37008;52.210;21.112;2023-05-07T01:43:32;7.55;;;4.90;;
50988;SDS011;37008;52.210;21.112;2023-05-07T01:45:58;5.35;;;4.53;;
50988;SDS011;37008;52.210;21.112;2023-05-07T01:48:26;7.55;;;4.65;;
50988;SDS011;37008;52.210;21.112;2023-05-07T01:50:52;8.57;;;5.72;;
50988;SDS011;37008;52.210;21.112;2023-05-07T01:53:18;7.20;;;5.43;;
50988;SDS011;37008;52.210;21.112;2023-05-07T01:55:43;8.68;;;5.63;;
50988;SDS011;37008;52.210;21.112;2023-05-07T01:58:10;6.55;;;4.85;;
50988;SDS011;37008;52.210;21.112;2023-05-07T02:00:35;8.95;;;5.03;;
50988;SDS011;37008;52.210;21.112;2023-05-07T02:03:01;11.43;;;4.97;;
50988;SDS011;37008;52.210;21.112;2023-05-07T02:05:27;7.32;;;5.00;;
50988;SDS011;37008;52.210;21.112;2023-05-07T02:07:52;6.93;;;4.78;;
50988;SDS011;37008;52.210;21.112;2023-05-07T02:10:18;9.02;;;4.78;;
50988;SDS011;37008;52.210;21.112;2023-05-07T02:12:43;8.23;;;5.18;;
50988;SDS011;37008;52.210;21.112;2023-05-07T02:15:09;6.15;;;4.80;;
50988;SDS011;37008;52.210;21.112;2023-05-07T02:17:35;8.13;;;5.22;;
50988;SDS011;37008;52.210;21.112;2023-05-07T02:20:03;7.20;;;4.72;;
50988;SDS011;37008;52.210;21.112;2023-05-07T02:22:29;7.70;;;4.90;;
50988;SDS011;37008;52.210;21.112;2023-05-07T02:24:55;5.22;;;4.45;;
50988;SDS011;37008;52.210;21.112;2023-05-07T02:27:21;5.50;;;4.30;;
50988;SDS011;37008;52.210;21.112;2023-05-07T02:29:46;6.63;;;4.25;;
50988;SDS011;37008;52.210;21.112;2023-05-07T02:32:12;5.88;;;3.95;;
50988;SDS011;37008;52.210;21.112;2023-05-07T02:34:37;7.50;;;4.47;;
50988;SDS011;37008;52.210;21.112;2023-05-07T02:37:03;6.90;;;4.20;;
50988;SDS011;37008;52.210;21.112;2023-05-07T02:39:28;7.53;;;5.07;;
50988;SDS011;37008;52.210;21.112;2023-05-07T02:41:55;4.32;;;3.50;;
50988;SDS011;37008;52.210;21.112;2023-05-07T02:44:20;7.50;;;4.57;;
50988;SDS011;37008;52.210;21.112;2023-05-07T02:46:46;6.45;;;4.47;;
50988;SDS011;37008;52.210;21.112;2023-05-07T02:49:11;9.82;;;4.82;;
50988;SDS011;37008;52.210;21.112;2023-05-07T02:51:37;8.43;;;4.35;;
50988;SDS011;37008;52.210;21.112;2023-05-07T02:54:02;8.07;;;4.53;;
50988;SDS011;37008;52.210;21.112;2023-05-07T02:56:28;8.65;;;4.50;;
50988;SDS011;37008;52.210;21.112;2023-05-07T02:58:53;8.30;;;4.70;;
50988;SDS011;37008;52.210;21.112;2023-05-07T03:01:19;6.32;;;4.15;;
50988;SDS011;37008;52.210;21.112;2023-05-07T03:03:45;5.45;;;4.03;;
50988;SDS011;37008;52.210;21.112;2023-05-07T03:06:11;5.25;;;3.95;;
50988;SDS011;37008;52.210;21.112;2023-05-07T03:08:36;6.93;;;4.35;;
50988;SDS011;37008;52.210;21.112;2023-05-07T03:11:02;7.30;;;3.72;;
50988;SDS011;37008;52.210;21.112;2023-05-07T03:13:28;6.72;;;4.28;;
50988;SDS011;37008;52.210;21.112;2023-05-07T03:15:53;7.53;;;4.85;;
50988;SDS011;37008;52.210;21.112;2023-05-07T03:18:19;5.07;;;3.85;;
50988;SDS011;37008;52.210;21.112;2023-05-07T03:20:44;5.72;;;4.07;;
50988;SDS011;37008;52.210;21.112;2023-05-07T03:23:11;5.85;;;3.80;;
50988;SDS011;37008;52.210;21.112;2023-05-07T03:25:36;7.22;;;4.90;;
50988;SDS011;37008;52.210;21.112;2023-05-07T03:28:02;6.05;;;4.35;;
50988;SDS011;37008;52.210;21.112;2023-05-07T03:30:27;5.75;;;4.40;;
50988;SDS011;37008;52.210;21.112;2023-05-07T03:32:53;6.55;;;4.88;;
50988;SDS011;37008;52.210;21.112;2023-05-07T03:35:19;6.03;;;2.80;;
50988;SDS011;37008;52.210;21.112;2023-05-07T03:37:44;6.22;;;4.00;;
50988;SDS011;37008;52.210;21.112;2023-05-07T03:40:10;7.35;;;3.97;;
50988;SDS011;37008;52.210;21.112;2023-05-07T03:42:37;5.22;;;3.72;;
50988;SDS011;37008;52.210;21.112;2023-05-07T03:45:02;5.57;;;3.67;;
50988;SDS011;37008;52.210;21.112;2023-05-07T03:47:28;4.75;;;4.15;;
50988;SDS011;37008;52.210;21.112;2023-05-07T03:49:54;7.30;;;4.50;;
50988;SDS011;37008;52.210;21.112;2023-05-07T03:52:20;5.93;;;4.45;;
50988;SDS011;37008;52.210;21.112;2023-05-07T03:54:50;6.10;;;3.95;;
50988;SDS011;37008;52.210;21.112;2023-05-07T03:57:17;4.90;;;4.40;;
50988;SDS011;37008;52.210;21.112;2023-05-07T03:59:42;5.05;;;4.20;;
50988;SDS011;37008;52.210;21.112;2023-05-07T04:02:08;8.02;;;4.45;;
50988;SDS011;37008;52.210;21.112;2023-05-07T04:04:33;7.55;;;3.28;;
50988;SDS011;37008;52.210;21.112;2023-05-07T04:06:59;4.30;;;3.63;;
50988;SDS011;37008;52.210;21.112;2023-05-07T04:09:25;4.40;;;3.20;;
50988;SDS011;37008;52.210;21.112;2023-05-07T04:11:51;5.93;;;3.30;;
50988;SDS011;37008;52.210;21.112;2023-05-07T04:14:16;5.03;;;3.33;;
50988;SDS011;37008;52.210;21.112;2023-05-07T04:16:42;6.75;;;3.35;;
50988;SDS011;37008;52.210;21.112;2023-05-07T04:19:07;6.18;;;3.50;;
50988;SDS011;37008;52.210;21.112;2023-05-07T04:21:33;4.90;;;4.10;;
50988;SDS011;37008;52.210;21.112;2023-05-07T04:23:58;4.60;;;3.78;;
50988;SDS011;37008;52.210;21.112;2023-05-07T04:26:24;6.72;;;3.95;;
50988;SDS011;37008;52.210;21.112;2023-05-07T04:28:50;4.93;;;3.60;;
50988;SDS011;37008;52.210;21.112;2023-05-07T04:31:15;6.90;;;4.22;;
50988;SDS011;37008;52.210;21.112;2023-05-07T04:33:41;6.90;;;4.05;;
50988;SDS011;37008;52.210;21.112;2023-05-07T04:36:07;7.22;;;4.75;;
50988;SDS011;37008;52.210;21.112;2023-05-07T04:38:32;5.22;;;3.50;;
50988;SDS011;37008;52.210;21.112;2023-05-07T04:41:02;7.90;;;3.70;;
50988;SDS011;37008;52.210;21.112;2023-05-07T04:43:29;7.40;;;3.50;;
50988;SDS011;37008;52.210;21.112;2023-05-07T04:45:54;7.07;;;2.53;;
50988;SDS011;37008;52.210;21.112;2023-05-07T04:48:20;5.00;;;3.75;;
50988;SDS011;37008;52.210;21.112;2023-05-07T04:50:49;5.90;;;3.70;;
50988;SDS011;37008;52.210;21.112;2023-05-07T04:53:15;3.88;;;3.28;;
50988;SDS011;37008;52.210;21.112;2023-05-07T04:55:41;6.82;;;3.58;;
50988;SDS011;37008;52.210;21.112;2023-05-07T04:58:07;8.00;;;3.40;;
50988;SDS011;37008;52.210;21.112;2023-05-07T05:00:33;5.60;;;3.33;;
50988;SDS011;37008;52.210;21.112;2023-05-07T05:02:59;5.03;;;3.63;;
50988;SDS011;37008;52.210;21.112;2023-05-07T05:05:24;5.18;;;3.20;;
50988;SDS011;37008;52.210;21.112;2023-05-07T05:07:50;7.30;;;3.85;;
50988;SDS011;37008;52.210;21.112;2023-05-07T05:10:16;4.22;;;3.10;;
50988;SDS011;37008;52.210;21.112;2023-05-07T05:12:42;6.60;;;4.13;;
50988;SDS011;37008;52.210;21.112;2023-05-07T05:15:10;8.27;;;3.00;;
50988;SDS011;37008;52.210;21.112;2023-05-07T05:17:38;6.13;;;3.47;;
50988;SDS011;37008;52.210;21.112;2023-05-07T05:20:04;5.38;;;2.97;;
50988;SDS011;37008;52.210;21.112;2023-05-07T05:22:31;4.28;;;2.85;;
50988;SDS011;37008;52.210;21.112;2023-05-07T05:24:57;4.40;;;3.00;;
50988;SDS011;37008;52.210;21.112;2023-05-07T05:27:22;6.57;;;2.58;;
50988;SDS011;37008;52.210;21.112;2023-05-07T05:29:48;5.03;;;2.85;;
50988;SDS011;37008;52.210;21.112;2023-05-07T05:32:13;3.60;;;2.45;;
50988;SDS011;37008;52.210;21.112;2023-05-07T05:34:39;3.10;;;2.33;;
50988;SDS011;37008;52.210;21.112;2023-05-07T05:37:05;2.30;;;1.73;;
50988;SDS011;37008;52.210;21.112;2023-05-07T05:39:30;3.42;;;2.20;;
50988;SDS011;37008;52.210;21.112;2023-05-07T05:41:56;4.07;;;2.22;;
50988;SDS011;37008;52.210;21.112;2023-05-07T05:44:21;3.90;;;2.15;;
50988;SDS011;37008;52.210;21.112;2023-05-07T05:46:47;2.80;;;2.38;;
50988;SDS011;37008;52.210;21.112;2023-05-07T05:49:14;3.22;;;2.45;;
50988;SDS011;37008;52.210;21.112;2023-05-07T05:51:40;4.95;;;2.20;;
50988;SDS011;37008;52.210;21.112;2023-05-07T05:54:06;3.97;;;2.40;;
50988;SDS011;37008;52.210;21.112;2023-05-07T05:56:31;3.08;;;2.08;;
50988;SDS011;37008;52.210;21.112;2023-05-07T05:58:57;2.45;;;1.88;;
50988;SDS011;37008;52.210;21.112;2023-05-07T06:01:23;2.55;;;1.77;;
50988;SDS011;37008;52.210;21.112;2023-05-07T06:03:48;4.22;;;2.47;;
50988;SDS011;37008;52.210;21.112;2023-05-07T06:06:14;3.72;;;2.10;;
50988;SDS011;37008;52.210;21.112;2023-05-07T06:08:40;4.32;;;2.05;;
50988;SDS011;37008;52.210;21.112;2023-05-07T06:11:06;5.97;;;2.40;;
50988;SDS011;37008;52.210;21.112;2023-05-07T06:13:31;3.55;;;1.98;;
50988;SDS011;37008;52.210;21.112;2023-05-07T06:15:57;5.15;;;2.10;;
50988;SDS011;37008;52.210;21.112;2023-05-07T06:18:23;4.75;;;2.00;;
50988;SDS011;37008;52.210;21.112;2023-05-07T06:20:49;2.80;;;1.90;;
50988;SDS011;37008;52.210;21.112;2023-05-07T06:23:14;2.63;;;1.85;;
50988;SDS011;37008;52.210;21.112;2023-05-07T06:25:40;3.30;;;2.33;;
50988;SDS011;37008;52.210;21.112;2023-05-07T06:28:05;3.95;;;2.22;;
50988;SDS011;37008;52.210;21.112;2023-05-07T06:30:33;1.95;;;1.55;;
50988;SDS011;37008;52.210;21.112;2023-05-07T06:32:58;2.83;;;2.00;;
50988;SDS011;37008;52.210;21.112;2023-05-07T06:35:24;3.78;;;2.42;;
50988;SDS011;37008;52.210;21.112;2023-05-07T06:37:50;3.08;;;2.03;;
50988;SDS011;37008;52.210;21.112;2023-05-07T06:40:15;2.58;;;1.83;;
50988;SDS011;37008;52.210;21.112;2023-05-07T06:42:41;2.42;;;1.75;;
50988;SDS011;37008;52.210;21.112;2023-05-07T06:45:07;3.33;;;1.75;;
50988;SDS011;37008;52.210;21.112;2023-05-07T06:47:33;7.28;;;1.85;;
50988;SDS011;37008;52.210;21.112;2023-05-07T06:49:59;3.38;;;1.50;;
50988;SDS011;37008;52.210;21.112;2023-05-07T06:52:24;2.45;;;1.80;;
50988;SDS011;37008;52.210;21.112;2023-05-07T06:54:50;2.75;;;1.77;;
50988;SDS011;37008;52.210;21.112;2023-05-07T06:57:15;2.47;;;1.98;;
50988;SDS011;37008;52.210;21.112;2023-05-07T06:59:41;3.70;;;2.05;;
50988;SDS011;37008;52.210;21.112;2023-05-07T07:02:06;4.50;;;2.10;;
50988;SDS011;37008;52.210;21.112;2023-05-07T07:04:33;2.58;;;1.52;;
50988;SDS011;37008;52.210;21.112;2023-05-07T07:06:58;5.50;;;2.03;;
50988;SDS011;37008;52.210;21.112;2023-05-07T07:09:24;6.75;;;1.95;;
50988;SDS011;37008;52.210;21.112;2023-05-07T07:11:50;2.30;;;1.80;;
50988;SDS011;37008;52.210;21.112;2023-05-07T07:14:15;2.72;;;1.45;;
50988;SDS011;37008;52.210;21.112;2023-05-07T07:16:41;1.88;;;1.45;;
50988;SDS011;37008;52.210;21.112;2023-05-07T07:19:06;2.88;;;2.05;;
50988;SDS011;37008;52.210;21.112;2023-05-07T07:21:32;3.28;;;1.70;;
50988;SDS011;37008;52.210;21.112;2023-05-07T07:23:57;4.25;;;1.80;;
50988;SDS011;37008;52.210;21.112;2023-05-07T07:26:23;8.15;;;2.28;;
50988;SDS011;37008;52.210;21.112;2023-05-07T07:28:49;3.80;;;2.03;;
50988;SDS011;37008;52.210;21.112;2023-05-07T07:31:14;4.38;;;2.30;;
50988;SDS011;37008;52.210;21.112;2023-05-07T07:33:40;6.10;;;2.63;;
50988;SDS011;37008;52.210;21.112;2023-05-07T07:36:06;2.95;;;2.10;;
50988;SDS011;37008;52.210;21.112;2023-05-07T07:38:32;4.82;;;2.42;;
50988;SDS011;37008;52.210;21.112;2023-05-07T07:40:58;3.95;;;2.53;;
50988;SDS011;37008;52.210;21.112;2023-05-07T07:43:23;3.33;;;2.00;;
50988;SDS011;37008;52.210;21.112;2023-05-07T07:45:49;3.70;;;1.90;;
50988;SDS011;37008;52.210;21.112;2023-05-07T07:48:15;5.05;;;2.70;;
50988;SDS011;37008;52.210;21.112;2023-05-07T07:50:40;5.80;;;1.90;;
50988;SDS011;37008;52.210;21.112;2023-05-07T07:53:06;3.60;;;2.15;;
50988;SDS011;37008;52.210;21.112;2023-05-07T07:55:32;3.33;;;2.13;;
50988;SDS011;37008;52.210;21.112;2023-05-07T07:57:57;2.35;;;1.80;;
50988;SDS011;37008;52.210;21.112;2023-05-07T08:00:23;7.75;;;2.00;;
50988;SDS011;37008;52.210;21.112;2023-05-07T08:02:49;3.03;;;1.75;;
50988;SDS011;37008;52.210;21.112;2023-05-07T08:05:14;3.00;;;2.13;;
50988;SDS011;37008;52.210;21.112;2023-05-07T08:07:40;4.47;;;1.80;;
50988;SDS011;37008;52.210;21.112;2023-05-07T08:10:06;2.78;;;1.60;;
50988;SDS011;37008;52.210;21.112;2023-05-07T08:12:32;4.40;;;1.90;;
50988;SDS011;37008;52.210;21.112;2023-05-07T08:14:57;3.55;;;2.05;;
50988;SDS011;37008;52.210;21.112;2023-05-07T08:17:23;6.55;;;2.10;;
50988;SDS011;37008;52.210;21.112;2023-05-07T08:19:49;4.65;;;1.48;;
50988;SDS011;37008;52.210;21.112;2023-05-07T08:22:14;6.75;;;2.05;;
50988;SDS011;37008;52.210;21.112;2023-05-07T08:24:40;3.10;;;1.75;;
50988;SDS011;37008;52.210;21.112;2023-05-07T08:27:06;8.48;;;2.00;;
50988;SDS011;37008;52.210;21.112;2023-05-07T08:29:32;4.80;;;1.70;;
50988;SDS011;37008;52.210;21.112;2023-05-07T08:31:57;2.88;;;1.80;;
50988;SDS011;37008;52.210;21.112;2023-05-07T08:34:23;4.82;;;1.67;;
50988;SDS011;37008;52.210;21.112;2023-05-07T08:36:48;6.82;;;1.67;;
50988;SDS011;37008;52.210;21.112;2023-05-07T08:39:17;4.65;;;1.50;;
50988;SDS011;37008;52.210;21.112;2023-05-07T08:41:44;4.93;;;1.63;;
50988;SDS011;37008;52.210;21.112;2023-05-07T08:44:13;7.47;;;1.70;;
50988;SDS011;37008;52.210;21.112;2023-05-07T08:46:40;2.63;;;1.45;;
50988;SDS011;37008;52.210;21.112;2023-05-07T08:49:08;3.95;;;1.90;;
50988;SDS011;37008;52.210;21.112;2023-05-07T08:51:33;2.38;;;1.48;;
50988;SDS011;37008;52.210;21.112;2023-05-07T08:54:00;4.13;;;1.75;;
50988;SDS011;37008;52.210;21.112;2023-05-07T08:56:26;5.40;;;1.70;;
50988;SDS011;37008;52.210;21.112;2023-05-07T08:58:52;4.40;;;1.80;;
50988;SDS011;37008;52.210;21.112;2023-05-07T09:01:21;3.10;;;1.70;;
50988;SDS011;37008;52.210;21.112;2023-05-07T09:03:47;4.93;;;1.95;;
50988;SDS011;37008;52.210;21.112;2023-05-07T09:06:12;4.57;;;1.63;;
50988;SDS011;37008;52.210;21.112;2023-05-07T09:08:38;4.63;;;1.90;;
50988;SDS011;37008;52.210;21.112;2023-05-07T09:11:04;7.13;;;1.70;;
50988;SDS011;37008;52.210;21.112;2023-05-07T09:13:30;3.33;;;1.45;;
50988;SDS011;37008;52.210;21.112;2023-05-07T09:15:56;2.92;;;1.42;;
50988;SDS011;37008;52.210;21.112;2023-05-07T09:18:23;1.98;;;1.50;;
50988;SDS011;37008;52.210;21.112;2023-05-07T09:20:50;2.70;;;1.77;;
50988;SDS011;37008;52.210;21.112;2023-05-07T09:23:15;6.90;;;1.50;;
50988;SDS011;37008;52.210;21.112;2023-05-07T09:25:41;4.20;;;1.50;;
50988;SDS011;37008;52.210;21.112;2023-05-07T09:28:07;3.08;;;1.60;;
50988;SDS011;37008;52.210;21.112;2023-05-07T09:30:35;2.38;;;1.38;;
50988;SDS011;37008;52.210;21.112;2023-05-07T09:33:01;2.58;;;1.30;;
50988;SDS011;37008;52.210;21.112;2023-05-07T09:35:29;3.15;;;1.50;;
50988;SDS011;37008;52.210;21.112;2023-05-07T09:37:56;3.42;;;1.50;;
50988;SDS011;37008;52.210;21.112;2023-05-07T09:40:23;3.13;;;1.30;;
50988;SDS011;37008;52.210;21.112;2023-05-07T09:42:54;5.15;;;2.00;;
50988;SDS011;37008;52.210;21.112;2023-05-07T09:47:53;2.70;;;1.80;;
50988;SDS011;37008;52.210;21.112;2023-05-07T09:50:22;3.80;;;1.50;;
50988;SDS011;37008;52.210;21.112;2023-05-07T09:52:52;3.28;;;1.38;;
50988;SDS011;37008;52.210;21.112;2023-05-07T09:55:20;4.18;;;1.70;;
50988;SDS011;37008;52.210;21.112;2023-05-07T09:57:48;4.03;;;1.33;;
50988;SDS011;37008;52.210;21.112;2023-05-07T10:00:17;3.70;;;1.60;;
50988;SDS011;37008;52.210;21.112;2023-05-07T10:02:45;4.03;;;1.50;;
50988;SDS011;37008;52.210;21.112;2023-05-07T10:05:14;2.58;;;1.20;;
50988;SDS011;37008;52.210;21.112;2023-05-07T10:07:40;7.13;;;1.58;;
50988;SDS011;37008;52.210;21.112;2023-05-07T10:10:06;4.15;;;1.42;;
50988;SDS011;37008;52.210;21.112;2023-05-07T10:12:32;5.47;;;1.60;;
50988;SDS011;37008;52.210;21.112;2023-05-07T10:15:04;1.73;;;1.30;;
50988;SDS011;37008;52.210;21.112;2023-05-07T10:17:32;9.93;;;1.50;;
50988;SDS011;37008;52.210;21.112;2023-05-07T10:20:03;5.85;;;1.50;;
50988;SDS011;37008;52.210;21.112;2023-05-07T10:22:31;4.00;;;1.60;;
50988;SDS011;37008;52.210;21.112;2023-05-07T10:25:19;2.50;;;1.25;;
50988;SDS011;37008;52.210;21.112;2023-05-07T10:27:47;2.63;;;1.42;;
50988;SDS011;37008;52.210;21.112;2023-05-07T10:33:13;2.40;;;1.70;;
50988;SDS011;37008;52.210;21.112;2023-05-07T10:35:42;3.72;;;1.65;;
50988;SDS011;37008;52.210;21.112;2023-05-07T10:38:10;4.65;;;2.13;;
50988;SDS011;37008;52.210;21.112;2023-05-07T10:40:36;2.50;;;1.40;;
50988;SDS011;37008;52.210;21.112;2023-05-07T10:43:03;4.60;;;1.42;;
50988;SDS011;37008;52.210;21.112;2023-05-07T10:45:32;5.85;;;1.38;;
50988;SDS011;37008;52.210;21.112;2023-05-07T10:48:14;3.85;;;1.77;;
50988;SDS011;37008;52.210;21.112;2023-05-07T10:50:43;3.83;;;1.52;;
50988;SDS011;37008;52.210;21.112;2023-05-07T10:55:43;2.42;;;1.50;;
50988;SDS011;37008;52.210;21.112;2023-05-07T11:00:47;2.85;;;1.70;;
50988;SDS011;37008;52.210;21.112;2023-05-07T11:03:14;4.68;;;1.48;;
50988;SDS011;37008;52.210;21.112;2023-05-07T11:05:40;2.80;;;1.65;;
50988;SDS011;37008;52.210;21.112;2023-05-07T11:08:07;7.22;;;1.45;;
50988;SDS011;37008;52.210;21.112;2023-05-07T11:10:49;6.28;;;1.50;;
50988;SDS011;37008;52.210;21.112;2023-05-07T11:13:15;3.70;;;1.80;;
50988;SDS011;37008;52.210;21.112;2023-05-07T11:15:43;5.80;;;3.92;;
50988;SDS011;37008;52.210;21.112;2023-05-07T11:18:13;4.10;;;2.30;;
50988;SDS011;37008;52.210;21.112;2023-05-07T11:20:58;5.75;;;1.55;;
50988;SDS011;37008;52.210;21.112;2023-05-07T11:25:59;4.63;;;2.80;;
50988;SDS011;37008;52.210;21.112;2023-05-07T11:28:28;7.00;;;3.95;;
50988;SDS011;37008;52.210;21.112;2023-05-07T11:30:56;6.38;;;1.88;;
50988;SDS011;37008;52.210;21.112;2023-05-07T11:33:22;3.20;;;2.00;;
50988;SDS011;37008;52.210;21.112;2023-05-07T11:35:50;3.88;;;1.50;;
50988;SDS011;37008;52.210;21.112;2023-05-07T11:38:18;2.88;;;1.80;;
50988;SDS011;37008;52.210;21.112;2023-05-07T11:40:51;4.30;;;1.38;;
50988;SDS011;37008;52.210;21.112;2023-05-07T11:43:17;3.58;;;2.65;;
50988;SDS011;37008;52.210;21.112;2023-05-07T11:45:42;4.70;;;1.85;;
50988;SDS011;37008;52.210;21.112;2023-05-07T11:48:09;3.25;;;1.45;;
50988;SDS011;37008;52.210;21.112;2023-05-07T11:50:35;3.83;;;1.50;;
50988;SDS011;37008;52.210;21.112;2023-05-07T11:53:07;4.00;;;1.98;;
50988;SDS011;37008;52.210;21.112;2023-05-07T11:55:32;4.68;;;1.48;;
50988;SDS011;37008;52.210;21.112;2023-05-07T11:57:58;3.42;;;1.52;;
50988;SDS011;37008;52.210;21.112;2023-05-07T12:00:24;4.93;;;1.52;;
50988;SDS011;37008;52.210;21.112;2023-05-07T12:02:50;6.35;;;1.80;;
50988;SDS011;37008;52.210;21.112;2023-05-07T12:05:15;3.15;;;1.55;;
50988;SDS011;37008;52.210;21.112;2023-05-07T12:07:41;2.05;;;1.45;;
50988;SDS011;37008;52.210;21.112;2023-05-07T12:10:07;3.63;;;1.40;;
50988;SDS011;37008;52.210;21.112;2023-05-07T12:12:39;4.45;;;1.80;;
50988;SDS011;37008;52.210;21.112;2023-05-07T12:15:06;2.63;;;1.60;;
50988;SDS011;37008;52.210;21.112;2023-05-07T12:17:33;2.28;;;1.40;;
50988;SDS011;37008;52.210;21.112;2023-05-07T12:19:58;2.03;;;1.33;;
50988;SDS011;37008;52.210;21.112;2023-05-07T12:22:25;3.60;;;1.70;;
50988;SDS011;37008;52.210;21.112;2023-05-07T12:24:57;5.03;;;1.63;;
50988;SDS011;37008;52.210;21.112;2023-05-07T12:27:23;13.98;;;9.25;;
50988;SDS011;37008;52.210;21.112;2023-05-07T12:29:50;5.72;;;1.88;;
50988;SDS011;37008;52.210;21.112;2023-05-07T12:32:16;19.27;;;5.65;;
50988;SDS011;37008;52.210;21.112;2023-05-07T12:34:46;11.80;;;2.72;;
50988;SDS011;37008;52.210;21.112;2023-05-07T12:37:14;2.95;;;2.53;;
50988;SDS011;37008;52.210;21.112;2023-05-07T12:39:49;14.85;;;4.65;;
50988;SDS011;37008;52.210;21.112;2023-05-07T12:42:32;5.85;;;2.95;;
50988;SDS011;37008;52.210;21.112;2023-05-07T12:45:07;15.18;;;5.80;;
50988;SDS011;37008;52.210;21.112;2023-05-07T12:52:30;4.10;;;1.30;;
50988;SDS011;37008;52.210;21.112;2023-05-07T12:54:56;2.45;;;1.40;;
50988;SDS011;37008;52.210;21.112;2023-05-07T12:57:29;3.45;;;1.42;;
50988;SDS011;37008;52.210;21.112;2023-05-07T12:59:57;11.02;;;8.00;;
50988;SDS011;37008;52.210;21.112;2023-05-07T13:02:31;4.65;;;1.52;;
50988;SDS011;37008;52.210;21.112;2023-05-07T13:05:04;3.22;;;1.70;;
50988;SDS011;37008;52.210;21.112;2023-05-07T13:07:29;2.60;;;1.73;;
50988;SDS011;37008;52.210;21.112;2023-05-07T13:09:55;6.68;;;2.15;;
50988;SDS011;37008;52.210;21.112;2023-05-07T13:12:21;1.95;;;1.40;;
50988;SDS011;37008;52.210;21.112;2023-05-07T13:14:46;3.13;;;1.92;;
50988;SDS011;37008;52.210;21.112;2023-05-07T13:17:12;3.38;;;1.48;;
50988;SDS011;37008;52.210;21.112;2023-05-07T13:19:38;2.67;;;1.17;;
50988;SDS011;37008;52.210;21.112;2023-05-07T13:22:03;2.53;;;1.40;;
50988;SDS011;37008;52.210;21.112;2023-05-07T13:24:29;3.08;;;1.17;;
50988;SDS011;37008;52.210;21.112;2023-05-07T13:26:54;2.50;;;1.50;;
50988;SDS011;37008;52.210;21.112;2023-05-07T13:29:20;2.75;;;1.20;;
50988;SDS011;37008;52.210;21.112;2023-05-07T13:31:53;3.63;;;1.83;;
50988;SDS011;37008;52.210;21.112;2023-05-07T13:34:19;4.85;;;1.23;;
50988;SDS011;37008;52.210;21.112;2023-05-07T13:36:45;1.77;;;1.20;;
50988;SDS011;37008;52.210;21.112;2023-05-07T13:39:11;2.15;;;1.30;;
50988;SDS011;37008;52.210;21.112;2023-05-07T13:41:36;3.17;;;1.17;;
50988;SDS011;37008;52.210;21.112;2023-05-07T13:44:02;4.88;;;1.10;;
50988;SDS011;37008;52.210;21.112;2023-05-07T13:46:27;5.63;;;1.30;;
50988;SDS011;37008;52.210;21.112;2023-05-07T13:48:54;2.63;;;1.27;;
50988;SDS011;37008;52.210;21.112;2023-05-07T13:51:20;2.33;;;1.23;;
50988;SDS011;37008;52.210;21.112;2023-05-07T13:53:46;1.60;;;1.20;;
50988;SDS011;37008;52.210;21.112;2023-05-07T13:56:12;2.22;;;1.30;;
50988;SDS011;37008;52.210;21.112;2023-05-07T13:58:39;3.42;;;1.50;;
50988;SDS011;37008;52.210;21.112;2023-05-07T14:01:05;3.58;;;1.35;;
50988;SDS011;37008;52.210;21.112;2023-05-07T14:03:31;3.28;;;1.25;;
50988;SDS011;37008;52.210;21.112;2023-05-07T14:05:58;4.18;;;1.30;;
50988;SDS011;37008;52.210;21.112;2023-05-07T14:08:25;3.63;;;1.30;;
50988;SDS011;37008;52.210;21.112;2023-05-07T14:10:50;2.35;;;1.30;;
50988;SDS011;37008;52.210;21.112;2023-05-07T14:13:16;4.28;;;1.50;;
50988;SDS011;37008;52.210;21.112;2023-05-07T14:15:42;3.33;;;1.45;;
50988;SDS011;37008;52.210;21.112;2023-05-07T14:18:11;3.58;;;1.30;;
50988;SDS011;37008;52.210;21.112;2023-05-07T14:20:40;1.55;;;1.25;;
50988;SDS011;37008;52.210;21.112;2023-05-07T14:23:05;1.73;;;1.20;;
50988;SDS011;37008;52.210;21.112;2023-05-07T14:25:31;3.25;;;1.60;;
50988;SDS011;37008;52.210;21.112;2023-05-07T14:27:57;3.47;;;1.52;;
50988;SDS011;37008;52.210;21.112;2023-05-07T14:30:22;4.13;;;1.30;;
50988;SDS011;37008;52.210;21.112;2023-05-07T14:32:49;3.95;;;1.60;;
50988;SDS011;37008;52.210;21.112;2023-05-07T14:35:15;2.38;;;1.15;;
50988;SDS011;37008;52.210;21.112;2023-05-07T14:37:41;3.08;;;1.38;;
50988;SDS011;37008;52.210;21.112;2023-05-07T14:40:08;3.97;;;1.45;;
50988;SDS011;37008;52.210;21.112;2023-05-07T14:42:34;4.25;;;1.40;;
50988;SDS011;37008;52.210;21.112;2023-05-07T14:45:00;2.28;;;1.30;;
50988;SDS011;37008;52.210;21.112;2023-05-07T14:47:25;3.83;;;1.35;;